Time;durP1;ratioP1;P1;durP2;ratioP2;P2;SDS_P1;SDS_P2;PMS_P1;PMS_P2;Temp;Humidity;BMP_temperature;BMP_pressure;BME280_temperature;BME280_humidity;BME280_pressure;Samples;Min_cycle;Max_cycle;Signal;HPM_P1;HPM_P2
2021/05/27 00:01:35;;;;;;;2.97;2.10;;;10.20;99.90;;;;;;5078245;28;20198;-48
2021/05/27 00:04:02;;;;;;;4.17;2.20;;;10.20;99.90;;;;;;5068591;28;20277;-51
2021/05/27 00:06:28;;;;;;;3.40;1.87;;;10.20;99.90;;;;;;5079944;28;20987;-46
2021/05/27 00:08:54;;;;;;;4.47;2.10;;;10.20;99.90;;;;;;5085390;28;20651;-47
2021/05/27 00:11:20;;;;;;;2.43;1.60;;;10.20;99.90;;;;;;5078389;28;20198;-46
2021/05/27 00:13:46;;;;;;;5.53;1.90;;;10.20;99.90;;;;;;5078664;28;20191;-52
2021/05/27 00:16:12;;;;;;;6.07;2.30;;;10.20;99.90;;;;;;5081083;28;20209;-49
2021/05/27 00:18:39;;;;;;;4.30;1.90;;;10.20;99.90;;;;;;5073970;28;20292;-49
2021/05/27 00:21:05;;;;;;;2.50;1.70;;;10.20;99.90;;;;;;5083848;28;20205;-46
2021/05/27 00:23:31;;;;;;;4.40;2.27;;;10.20;99.90;;;;;;5079406;28;20878;-49
2021/05/27 00:25:57;;;;;;;3.73;1.93;;;10.10;99.90;;;;;;5085836;28;20194;-46
2021/05/27 00:28:24;;;;;;;2.40;1.97;;;10.20;99.90;;;;;;5083660;28;20193;-51
2021/05/27 00:30:50;;;;;;;5.60;2.50;;;10.10;99.90;;;;;;5080554;28;20201;-49
2021/05/27 00:33:16;;;;;;;4.80;1.77;;;10.10;99.90;;;;;;5081980;28;20194;-49
2021/05/27 00:35:43;;;;;;;3.33;1.67;;;10.10;99.90;;;;;;5071835;28;20367;-47
2021/05/27 00:38:09;;;;;;;3.37;1.90;;;10.10;99.90;;;;;;5076578;28;20686;-45
2021/05/27 00:40:35;;;;;;;5.40;1.60;;;10.10;99.90;;;;;;5079479;28;20679;-45
2021/05/27 00:43:01;;;;;;;6.50;2.00;;;10.10;99.90;;;;;;5083263;28;20558;-46
2021/05/27 00:45:27;;;;;;;5.03;1.70;;;10.00;99.90;;;;;;5081087;28;20244;-47
2021/05/27 00:47:53;;;;;;;5.20;1.97;;;10.00;99.90;;;;;;5084879;28;20210;-47
2021/05/27 00:50:21;;;;;;;5.90;1.70;;;10.00;99.90;;;;;;5066845;28;20434;-46
2021/05/27 00:52:49;;;;;;;5.40;2.83;;;10.00;99.90;;;;;;5084565;28;20246;-45
2021/05/27 00:55:18;;;;;;;3.07;2.23;;;10.00;99.90;;;;;;5056504;28;20809;-46
2021/05/27 00:57:44;;;;;;;6.07;2.13;;;10.00;99.90;;;;;;5075173;28;20312;-46
2021/05/27 01:00:12;;;;;;;2.07;1.40;;;10.00;99.90;;;;;;5091145;28;20205;-45
2021/05/27 01:02:39;;;;;;;3.70;1.30;;;10.00;99.90;;;;;;5092222;28;20202;-46
2021/05/27 01:05:08;;;;;;;2.03;1.50;;;9.90;99.90;;;;;;5081901;28;20246;-49
2021/05/27 01:07:35;;;;;;;3.03;1.37;;;10.00;99.90;;;;;;5069259;28;20785;-46
2021/05/27 01:10:05;;;;;;;1.83;1.07;;;9.90;99.90;;;;;;5069556;28;20209;-47
2021/05/27 01:12:31;;;;;;;3.73;1.50;;;9.90;99.90;;;;;;5082253;28;20194;-48
2021/05/27 01:17:44;;;;;;;3.23;1.53;;;9.90;99.90;;;;;;5084256;28;20213;-47
2021/05/27 01:20:12;;;;;;;2.03;1.50;;;9.90;99.90;;;;;;5080121;28;20197;-47
2021/05/27 01:22:40;;;;;;;4.07;1.90;;;9.90;99.90;;;;;;5070583;28;20210;-46
2021/05/27 01:25:08;;;;;;;4.77;2.00;;;9.90;99.90;;;;;;5074911;28;20205;-46
2021/05/27 01:27:34;;;;;;;2.27;1.80;;;9.90;99.90;;;;;;5079117;28;20229;-47
2021/05/27 01:30:01;;;;;;;3.83;1.97;;;9.90;99.90;;;;;;5080940;28;20597;-47
2021/05/27 01:32:28;;;;;;;4.07;2.47;;;9.90;99.90;;;;;;5080823;28;20286;-45
2021/05/27 01:34:55;;;;;;;4.97;1.93;;;9.90;99.90;;;;;;5082184;28;20201;-44
2021/05/27 01:37:21;;;;;;;2.27;2.07;;;9.90;99.90;;;;;;5066578;28;20501;-48
2021/05/27 01:39:50;;;;;;;3.53;2.00;;;9.90;99.90;;;;;;5082287;28;20317;-45
2021/05/27 01:42:16;;;;;;;7.07;2.07;;;9.90;99.90;;;;;;5074048;28;20204;-46
2021/05/27 01:44:43;;;;;;;5.23;2.87;;;9.90;99.90;;;;;;5079909;28;20297;-46
2021/05/27 01:47:10;;;;;;;4.27;2.30;;;9.90;99.90;;;;;;5080646;28;20338;-47
2021/05/27 01:49:39;;;;;;;4.80;2.00;;;9.90;99.90;;;;;;5083817;28;20206;-45
2021/05/27 01:52:06;;;;;;;5.37;1.60;;;9.90;99.90;;;;;;5092094;28;20228;-45
2021/05/27 01:54:32;;;;;;;5.13;1.60;;;9.90;99.90;;;;;;5075346;28;20403;-46
2021/05/27 01:56:59;;;;;;;3.57;1.90;;;9.90;99.90;;;;;;5076942;28;20251;-46
2021/05/27 01:59:27;;;;;;;4.80;1.87;;;9.90;99.90;;;;;;5075128;28;20235;-45
2021/05/27 02:01:54;;;;;;;3.13;1.57;;;9.90;99.90;;;;;;5083897;28;20198;-44
2021/05/27 02:04:20;;;;;;;5.37;2.07;;;9.80;99.90;;;;;;5076873;28;20190;-46
2021/05/27 02:06:47;;;;;;;3.87;2.13;;;9.80;99.90;;;;;;5082998;28;20222;-46
2021/05/27 02:09:16;;;;;;;2.50;1.70;;;9.80;99.90;;;;;;5066198;28;21048;-49
2021/05/27 02:11:49;;;;;;;3.83;1.27;;;9.80;99.90;;;;;;5078534;28;20292;-49
2021/05/27 02:14:19;;;;;;;2.60;2.10;;;9.70;99.90;;;;;;5083357;28;20206;-46
2021/05/27 02:16:46;;;;;;;2.40;1.50;;;9.70;99.90;;;;;;5083424;28;20226;-52
2021/05/27 02:19:13;;;;;;;2.97;1.47;;;9.70;99.90;;;;;;5080048;28;20205;-50
2021/05/27 02:21:42;;;;;;;2.17;1.33;;;9.70;99.90;;;;;;5085409;28;20194;-47
2021/05/27 02:24:13;;;;;;;3.60;1.33;;;9.70;99.90;;;;;;5068431;28;20209;-49
2021/05/27 02:26:39;;;;;;;4.30;1.60;;;9.70;99.90;;;;;;5077441;28;20573;-51
2021/05/27 02:29:10;;;;;;;3.00;1.10;;;9.70;99.90;;;;;;5085818;28;20212;-46
2021/05/27 02:31:39;;;;;;;4.73;1.63;;;9.70;99.90;;;;;;5090243;28;20194;-48
2021/05/27 02:34:09;;;;;;;7.83;1.83;;;9.70;99.90;;;;;;5087082;28;20198;-45
2021/05/27 02:36:38;;;;;;;5.47;1.43;;;9.60;99.90;;;;;;5088638;28;20309;-44
2021/05/27 02:39:06;;;;;;;2.30;1.20;;;9.60;99.90;;;;;;5069560;28;20217;-44
2021/05/27 02:41:40;;;;;;;2.00;1.07;;;9.60;99.90;;;;;;5082790;28;20639;-49
2021/05/27 02:44:07;;;;;;;3.13;1.00;;;9.60;99.90;;;;;;5075751;28;20210;-44
2021/05/27 02:46:41;;;;;;;1.87;1.03;;;9.60;99.90;;;;;;5086280;28;20536;-45
2021/05/27 02:49:09;;;;;;;3.47;1.37;;;9.50;99.90;;;;;;5084512;28;20202;-42
2021/05/27 02:51:39;;;;;;;2.33;1.20;;;9.50;99.90;;;;;;5086952;28;20197;-46
2021/05/27 02:54:05;;;;;;;2.87;1.07;;;9.50;99.90;;;;;;5066881;28;20264;-47
2021/05/27 02:56:35;;;;;;;3.20;1.40;;;9.50;99.90;;;;;;5084862;28;20248;-49
2021/05/27 02:59:03;;;;;;;6.63;1.47;;;9.50;99.90;;;;;;5079282;28;20683;-45
2021/05/27 03:01:29;;;;;;;3.30;1.30;;;9.50;99.90;;;;;;5080554;28;20187;-47
2021/05/27 03:03:57;;;;;;;3.03;1.30;;;9.50;99.90;;;;;;5078421;28;20206;-45
2021/05/27 03:06:23;;;;;;;3.13;1.20;;;9.50;99.90;;;;;;5065953;28;20248;-45
2021/05/27 03:08:52;;;;;;;6.10;1.50;;;9.50;99.90;;;;;;5067849;28;20274;-48
2021/05/27 03:11:21;;;;;;;4.30;1.03;;;9.50;99.90;;;;;;5065064;28;20210;-48
2021/05/27 03:13:49;;;;;;;2.00;1.00;;;9.50;99.90;;;;;;5072559;28;20285;-46
2021/05/27 03:16:18;;;;;;;2.77;0.97;;;9.40;99.90;;;;;;5079853;28;20820;-50
2021/05/27 03:18:44;;;;;;;5.47;1.07;;;9.40;99.90;;;;;;5082896;28;20721;-48
2021/05/27 03:21:11;;;;;;;0.73;0.70;;;9.40;99.90;;;;;;5084757;28;20194;-46
2021/05/27 03:23:38;;;;;;;3.60;0.93;;;9.40;99.90;;;;;;5083302;28;20323;-47
2021/05/27 03:26:05;;;;;;;1.30;0.97;;;9.40;99.90;;;;;;5072683;28;20210;-45
2021/05/27 03:28:31;;;;;;;1.43;1.33;;;9.30;99.90;;;;;;5079608;28;20206;-47
2021/05/27 03:31:06;;;;;;;1.03;0.90;;;9.30;99.90;;;;;;5083426;28;20663;-44
2021/05/27 03:33:37;;;;;;;3.67;1.67;;;9.30;99.90;;;;;;5088247;28;20641;-49
2021/05/27 03:36:04;;;;;;;2.47;0.77;;;9.30;99.90;;;;;;5084081;28;20232;-47
2021/05/27 03:38:34;;;;;;;3.80;0.80;;;9.30;99.90;;;;;;5085983;28;20228;-48
2021/05/27 03:41:00;;;;;;;2.60;1.30;;;9.30;99.90;;;;;;5081070;28;20202;-44
2021/05/27 03:43:26;;;;;;;2.57;1.00;;;9.30;99.90;;;;;;5073011;28;20228;-50
2021/05/27 03:45:53;;;;;;;7.10;2.87;;;9.30;99.90;;;;;;5078697;28;20217;-46
2021/05/27 03:48:21;;;;;;;2.60;0.90;;;9.30;99.90;;;;;;5078881;28;21108;-49
2021/05/27 03:50:47;;;;;;;2.97;2.00;;;9.30;99.90;;;;;;5087204;28;20205;-46
2021/05/27 03:53:17;;;;;;;0.83;0.83;;;9.30;99.90;;;;;;5082313;28;20254;-50
2021/05/27 03:55:51;;;;;;;1.20;0.80;;;9.30;99.90;;;;;;5088121;28;20933;-47
2021/05/27 04:01:02;;;;;;;3.20;1.00;;;9.30;99.90;;;;;;5068955;28;20802;-46
2021/05/27 04:09:29;;;;;;;5.90;3.17;;;9.20;99.90;;;;;;5081614;28;20197;-48
2021/05/27 04:14:37;;;;;;;4.17;1.37;;;9.30;99.90;;;;;;5070037;28;20796;-46
2021/05/27 04:17:03;;;;;;;2.37;1.17;;;9.30;99.90;;;;;;5073867;28;20214;-48
2021/05/27 04:19:29;;;;;;;3.47;1.50;;;9.30;99.90;;;;;;5074542;28;20667;-49
2021/05/27 04:21:56;;;;;;;4.90;1.80;;;9.30;99.90;;;;;;5082388;28;20241;-49
2021/05/27 04:24:22;;;;;;;5.37;1.83;;;9.30;99.90;;;;;;5089171;28;20194;-49
2021/05/27 04:26:48;;;;;;;2.13;1.70;;;9.30;99.90;;;;;;5081997;28;20209;-50
2021/05/27 04:29:15;;;;;;;3.30;2.23;;;9.30;99.90;;;;;;5071343;28;20206;-49
2021/05/27 04:31:41;;;;;;;2.00;1.57;;;9.40;99.90;;;;;;5073715;28;20263;-47
2021/05/27 04:34:07;;;;;;;4.87;2.83;;;9.40;99.90;;;;;;5087553;28;20205;-49
2021/05/27 04:36:33;;;;;;;8.90;2.50;;;9.40;99.90;;;;;;5084654;28;20226;-45
2021/05/27 04:38:59;;;;;;;3.83;2.40;;;9.40;99.90;;;;;;5081881;28;20202;-48
2021/05/27 04:41:26;;;;;;;4.87;1.90;;;9.50;99.90;;;;;;5086146;28;20309;-47
2021/05/27 04:43:54;;;;;;;5.07;2.40;;;9.50;99.90;;;;;;5083418;28;20355;-45
2021/05/27 04:46:21;;;;;;;6.27;1.80;;;9.50;99.90;;;;;;5072854;28;20907;-44
2021/05/27 04:48:47;;;;;;;6.20;2.57;;;9.50;99.90;;;;;;5075840;28;20281;-44
2021/05/27 04:51:13;;;;;;;4.30;2.10;;;9.60;99.90;;;;;;5085408;28;20190;-46
2021/05/27 04:53:39;;;;;;;4.07;2.07;;;9.50;99.90;;;;;;5079629;28;20244;-44
2021/05/27 04:56:06;;;;;;;6.63;2.10;;;9.60;99.90;;;;;;5085214;28;20213;-45
2021/05/27 04:58:33;;;;;;;6.13;3.00;;;9.60;99.90;;;;;;5077269;28;20210;-47
2021/05/27 05:00:59;;;;;;;6.40;2.10;;;9.70;99.90;;;;;;5069409;28;20208;-46
2021/05/27 05:03:26;;;;;;;6.23;2.63;;;9.70;99.90;;;;;;5076581;28;20205;-49
2021/05/27 05:05:52;;;;;;;5.43;2.77;;;9.70;99.90;;;;;;5078738;28;20479;-48
2021/05/27 05:08:19;;;;;;;9.30;3.50;;;9.70;99.90;;;;;;5112970;27;20632;-46
2021/05/27 05:10:46;;;;;;;6.60;3.53;;;9.70;99.90;;;;;;5081397;28;20277;-49
2021/05/27 05:13:12;;;;;;;6.03;2.47;;;9.70;99.90;;;;;;5085221;28;20202;-50
2021/05/27 05:15:40;;;;;;;4.23;2.20;;;9.80;99.90;;;;;;5075357;28;20205;-44
2021/05/27 05:18:07;;;;;;;6.87;2.60;;;9.80;99.90;;;;;;5076725;28;20289;-47
2021/05/27 05:20:36;;;;;;;5.97;2.23;;;9.80;99.90;;;;;;5076101;28;20202;-45
2021/05/27 05:23:02;;;;;;;3.60;2.03;;;9.80;99.90;;;;;;5080566;28;20221;-47
2021/05/27 05:25:30;;;;;;;6.40;2.80;;;9.80;99.90;;;;;;5084576;28;20202;-46
2021/05/27 05:27:57;;;;;;;5.43;2.47;;;9.80;99.90;;;;;;5070512;28;20278;-45
2021/05/27 05:30:25;;;;;;;4.60;2.20;;;9.80;99.90;;;;;;5077489;28;20678;-48
2021/05/27 05:32:52;;;;;;;3.67;1.80;;;9.80;99.90;;;;;;5057527;28;20212;-46
2021/05/27 05:35:19;;;;;;;3.67;2.33;;;9.80;99.90;;;;;;5071861;28;20621;-47
2021/05/27 05:37:47;;;;;;;5.03;2.10;;;9.80;99.90;;;;;;5069063;28;20225;-46
2021/05/27 05:40:15;;;;;;;5.87;2.37;;;9.80;99.90;;;;;;5084008;28;20194;-47
2021/05/27 05:42:42;;;;;;;3.47;2.03;;;9.80;99.90;;;;;;5075788;28;20212;-46
2021/05/27 05:45:10;;;;;;;6.03;2.30;;;9.90;99.90;;;;;;5083908;28;20210;-48
2021/05/27 05:47:37;;;;;;;7.40;3.20;;;9.90;99.90;;;;;;5074099;28;20214;-47
2021/05/27 05:50:04;;;;;;;8.57;3.77;;;10.00;99.90;;;;;;5072152;28;20195;-46
2021/05/27 05:52:31;;;;;;;3.47;2.40;;;10.00;99.90;;;;;;5075725;28;20572;-45
2021/05/27 05:54:58;;;;;;;5.30;2.70;;;10.00;99.90;;;;;;5072501;28;20987;-43
2021/05/27 05:57:24;;;;;;;11.40;4.07;;;10.00;99.90;;;;;;5081105;28;20561;-46
2021/05/27 05:59:50;;;;;;;3.47;1.97;;;10.10;99.90;;;;;;5076001;28;20206;-46
2021/05/27 06:02:17;;;;;;;4.90;3.00;;;10.10;99.90;;;;;;5078407;28;20204;-46
2021/05/27 06:04:43;;;;;;;6.37;2.93;;;10.10;99.90;;;;;;5081929;28;20227;-45
2021/05/27 06:07:21;;;;;;;3.50;2.23;;;10.10;99.90;;;;;;5074184;28;20214;-44
2021/05/27 06:09:47;;;;;;;3.27;2.10;;;10.20;99.90;;;;;;5083699;28;20210;-50
2021/05/27 06:12:14;;;;;;;3.97;2.77;;;10.20;99.90;;;;;;5075982;28;20182;-49
2021/05/27 06:14:40;;;;;;;3.30;2.73;;;10.20;99.90;;;;;;5086208;28;20224;-49
2021/05/27 06:17:07;;;;;;;6.67;2.93;;;10.30;99.90;;;;;;5081090;28;20791;-50
2021/05/27 06:19:33;;;;;;;6.43;3.13;;;10.30;99.90;;;;;;5071881;28;20988;-47
2021/05/27 06:22:06;;;;;;;5.50;3.30;;;10.40;99.90;;;;;;5078811;28;20236;-49
2021/05/27 06:25:02;;;;;;;4.30;2.50;;;10.40;99.90;;;;;;5061238;28;20285;-47
2021/05/27 06:27:29;;;;;;;6.03;2.57;;;10.50;99.90;;;;;;5081961;28;20225;-48
2021/05/27 06:29:55;;;;;;;3.90;2.80;;;10.50;99.90;;;;;;5084312;28;20209;-46
2021/05/27 06:32:21;;;;;;;10.93;3.50;;;10.50;99.90;;;;;;5070496;28;20247;-48
2021/05/27 06:34:48;;;;;;;4.50;3.03;;;10.60;99.90;;;;;;5073520;28;20225;-46
2021/05/27 06:37:14;;;;;;;6.63;2.50;;;10.60;99.90;;;;;;5076761;28;20319;-50
2021/05/27 06:39:41;;;;;;;5.27;2.60;;;10.70;99.90;;;;;;5085079;28;20251;-51
2021/05/27 06:42:07;;;;;;;5.87;3.00;;;10.60;99.90;;;;;;5087963;28;20182;-50
2021/05/27 06:44:34;;;;;;;8.53;3.60;;;10.60;99.90;;;;;;5090428;28;20186;-48
2021/05/27 06:47:00;;;;;;;9.57;4.57;;;10.70;99.90;;;;;;5086390;28;20198;-51
2021/05/27 06:49:26;;;;;;;9.40;3.73;;;10.70;99.90;;;;;;5089816;28;20206;-46
2021/05/27 06:51:56;;;;;;;2.83;2.50;;;10.70;99.90;;;;;;5071416;28;20205;-48
2021/05/27 06:54:22;;;;;;;6.63;3.00;;;10.70;99.90;;;;;;5085081;28;20271;-47
2021/05/27 06:56:49;;;;;;;4.33;2.70;;;10.70;99.90;;;;;;5088142;28;20229;-46
2021/05/27 06:59:15;;;;;;;5.90;2.80;;;10.70;99.90;;;;;;5089098;28;20200;-46
2021/05/27 07:01:42;;;;;;;7.73;3.17;;;10.80;99.90;;;;;;5086224;28;20239;-51
2021/05/27 07:04:08;;;;;;;8.27;3.80;;;10.70;99.90;;;;;;5080336;28;20295;-46
2021/05/27 07:06:34;;;;;;;5.83;3.10;;;10.80;99.90;;;;;;5077706;28;20222;-47
2021/05/27 07:09:00;;;;;;;3.53;2.63;;;10.80;99.90;;;;;;5077292;28;20205;-46
2021/05/27 07:11:27;;;;;;;5.37;2.40;;;10.80;99.90;;;;;;5091079;28;20190;-48
2021/05/27 07:13:53;;;;;;;10.20;2.90;;;10.90;99.90;;;;;;5073080;28;20255;-49
2021/05/27 07:16:19;;;;;;;6.40;3.33;;;11.00;99.90;;;;;;5081647;28;20214;-46
2021/05/27 07:18:46;;;;;;;9.47;3.13;;;11.20;99.90;;;;;;5076257;28;20255;-50
2021/05/27 07:21:12;;;;;;;5.07;3.17;;;11.20;99.90;;;;;;5084961;28;20186;-50
2021/05/27 07:23:38;;;;;;;11.33;4.03;;;11.30;99.90;;;;;;5073305;28;20963;-51
2021/05/27 07:26:05;;;;;;;7.73;3.27;;;11.30;99.90;;;;;;5073979;28;20283;-47
2021/05/27 07:28:31;;;;;;;5.13;3.30;;;11.40;99.90;;;;;;5081947;28;20209;-48
2021/05/27 07:30:58;;;;;;;6.43;3.40;;;11.50;99.90;;;;;;5082118;28;20202;-46
2021/05/27 07:33:24;;;;;;;7.10;3.43;;;11.40;99.90;;;;;;5083550;28;20666;-46
2021/05/27 07:35:51;;;;;;;5.60;2.90;;;11.50;99.90;;;;;;5084549;28;20198;-50
2021/05/27 07:38:18;;;;;;;7.17;3.50;;;11.40;99.90;;;;;;5072150;28;20276;-48
2021/05/27 07:40:45;;;;;;;3.97;3.10;;;11.40;99.90;;;;;;5072682;28;20229;-46
2021/05/27 07:43:12;;;;;;;4.57;3.50;;;11.40;99.90;;;;;;5082563;28;20854;-52
2021/05/27 07:45:39;;;;;;;5.97;3.53;;;11.30;99.90;;;;;;5087060;28;20214;-50
2021/05/27 07:48:05;;;;;;;7.20;3.57;;;11.40;99.90;;;;;;5079439;28;20222;-49
2021/05/27 07:50:32;;;;;;;5.33;3.83;;;11.40;99.90;;;;;;5086822;28;20193;-47
2021/05/27 07:52:59;;;;;;;10.77;4.50;;;11.50;99.90;;;;;;5071156;28;20935;-48
2021/05/27 07:55:26;;;;;;;6.83;4.27;;;11.50;99.90;;;;;;5083408;28;20206;-51
2021/05/27 07:57:52;;;;;;;8.63;4.33;;;11.60;99.90;;;;;;5080091;28;20778;-47
2021/05/27 08:00:19;;;;;;;7.70;4.00;;;11.60;99.90;;;;;;5083804;28;20198;-50
2021/05/27 08:02:47;;;;;;;6.50;3.80;;;11.60;99.90;;;;;;5083821;28;20202;-46
2021/05/27 08:05:14;;;;;;;4.10;3.67;;;11.60;99.90;;;;;;5080707;28;20194;-47
2021/05/27 08:07:40;;;;;;;9.17;3.63;;;11.70;99.90;;;;;;5069358;28;20222;-49
2021/05/27 08:10:09;;;;;;;7.30;3.90;;;11.70;99.90;;;;;;5078595;28;20213;-51
2021/05/27 08:12:35;;;;;;;5.43;3.47;;;11.80;99.90;;;;;;5081587;28;20678;-48
2021/05/27 08:15:02;;;;;;;4.33;3.80;;;11.90;99.90;;;;;;5082641;28;20198;-49
2021/05/27 08:17:29;;;;;;;4.77;4.30;;;11.90;99.90;;;;;;5085199;28;20221;-49
2021/05/27 08:19:55;;;;;;;7.07;4.00;;;12.00;99.90;;;;;;5078513;28;20660;-49
2021/05/27 08:22:21;;;;;;;7.03;4.03;;;12.10;99.90;;;;;;5085411;28;20206;-49
2021/05/27 08:24:47;;;;;;;4.43;3.73;;;12.10;99.90;;;;;;5058080;28;20207;-52
2021/05/27 08:27:14;;;;;;;7.13;3.40;;;12.20;99.90;;;;;;5066153;28;20224;-47
2021/05/27 08:29:40;;;;;;;3.90;3.50;;;12.20;99.90;;;;;;5075543;28;20246;-49
2021/05/27 08:32:07;;;;;;;6.13;3.60;;;12.20;99.90;;;;;;5080714;28;21073;-53
2021/05/27 08:34:33;;;;;;;4.40;4.00;;;12.30;99.90;;;;;;5073707;28;20769;-50
2021/05/27 08:37:00;;;;;;;4.60;3.30;;;12.40;99.90;;;;;;5079339;28;20217;-50
2021/05/27 08:39:26;;;;;;;5.57;3.30;;;12.40;99.90;;;;;;5062154;28;20206;-48
2021/05/27 08:41:52;;;;;;;3.27;3.07;;;12.50;99.90;;;;;;5078522;28;20213;-52
2021/05/27 08:44:19;;;;;;;4.37;3.27;;;12.60;99.90;;;;;;5081984;28;20204;-48
2021/05/27 08:46:47;;;;;;;4.57;2.87;;;12.60;99.90;;;;;;5079971;28;20270;-50
2021/05/27 08:49:14;;;;;;;3.40;2.70;;;12.60;99.90;;;;;;5079107;28;20281;-49
2021/05/27 08:51:40;;;;;;;3.17;2.77;;;12.60;99.90;;;;;;5077058;28;20198;-49
2021/05/27 08:54:06;;;;;;;3.33;2.40;;;12.50;99.90;;;;;;5066917;28;20264;-50
2021/05/27 08:56:33;;;;;;;5.00;2.40;;;12.60;99.90;;;;;;5070026;28;20217;-49
2021/05/27 08:58:59;;;;;;;3.17;2.43;;;12.60;99.90;;;;;;5082321;28;20655;-47
2021/05/27 09:01:26;;;;;;;3.10;2.33;;;12.60;99.90;;;;;;5078103;28;20194;-47
2021/05/27 09:03:54;;;;;;;2.63;2.13;;;12.60;99.90;;;;;;5077908;28;20240;-52
2021/05/27 09:06:21;;;;;;;2.80;2.60;;;12.60;99.90;;;;;;5077405;28;20578;-51
2021/05/27 09:08:47;;;;;;;2.10;2.00;;;12.70;99.90;;;;;;5080256;28;20205;-51
2021/05/27 09:11:15;;;;;;;4.67;1.73;;;12.70;99.90;;;;;;5067072;28;20300;-50
2021/05/27 09:13:52;;;;;;;3.67;1.90;;;12.80;99.90;;;;;;5079967;28;20670;-49
2021/05/27 09:16:19;;;;;;;5.23;2.27;;;12.80;99.90;;;;;;5078669;28;20297;-49
2021/05/27 09:18:46;;;;;;;2.30;2.10;;;12.70;99.90;;;;;;5082039;28;20201;-51
2021/05/27 09:21:14;;;;;;;4.00;1.97;;;12.60;99.90;;;;;;5078000;28;20295;-51
2021/05/27 09:23:47;;;;;;;4.20;1.83;;;12.50;99.90;;;;;;5084426;28;20224;-54
2021/05/27 09:26:15;;;;;;;2.33;2.13;;;12.50;99.90;;;;;;5068155;28;20221;-52
2021/05/27 09:28:43;;;;;;;1.50;1.40;;;12.40;99.90;;;;;;5073063;28;20586;-51
2021/05/27 09:31:11;;;;;;;3.23;1.80;;;12.30;99.90;;;;;;5078846;28;20186;-52
2021/05/27 09:33:39;;;;;;;2.77;1.80;;;12.30;99.90;;;;;;5082341;28;20206;-52
2021/05/27 09:36:08;;;;;;;2.17;1.40;;;12.30;99.90;;;;;;5078974;28;20206;-47
2021/05/27 09:38:36;;;;;;;3.17;1.70;;;12.40;99.90;;;;;;5080233;28;20236;-47
2021/05/27 09:41:15;;;;;;;3.77;1.70;;;12.40;99.90;;;;;;5061108;28;20294;-47
2021/05/27 09:43:43;;;;;;;2.93;1.63;;;12.40;99.90;;;;;;5079730;28;20209;-47
2021/05/27 09:46:10;;;;;;;4.10;2.17;;;12.40;99.90;;;;;;5079566;28;20324;-47
2021/05/27 09:48:37;;;;;;;4.33;1.83;;;12.40;99.90;;;;;;5083720;28;20263;-50
2021/05/27 09:51:04;;;;;;;4.60;2.10;;;12.50;99.90;;;;;;5080414;28;20326;-50
2021/05/27 09:53:34;;;;;;;3.50;2.00;;;12.60;99.90;;;;;;5081399;28;20197;-48
2021/05/27 09:56:02;;;;;;;2.00;1.90;;;12.80;99.90;;;;;;5066241;28;20301;-51
2021/05/27 09:58:28;;;;;;;10.43;2.80;;;12.90;99.90;;;;;;5080089;28;20214;-54
2021/05/27 10:00:55;;;;;;;3.27;2.30;;;13.00;99.90;;;;;;5081707;28;20190;-50
2021/05/27 10:03:33;;;;;;;4.80;2.30;;;13.00;99.90;;;;;;5082871;28;20194;-53
2021/05/27 10:06:02;;;;;;;2.40;2.20;;;13.00;99.90;;;;;;5075861;28;20213;-50
2021/05/27 10:08:29;;;;;;;2.53;1.77;;;13.10;99.90;;;;;;5082687;28;20190;-47
2021/05/27 10:10:57;;;;;;;2.53;1.97;;;13.20;99.90;;;;;;5064120;28;20212;-48
2021/05/27 10:13:27;;;;;;;2.63;2.40;;;13.40;99.90;;;;;;5077579;28;20202;-49
2021/05/27 10:15:53;;;;;;;3.00;2.07;;;13.70;99.90;;;;;;5081769;28;20242;-49
2021/05/27 10:18:21;;;;;;;3.00;1.90;;;13.90;99.90;;;;;;5082748;28;20220;-50
2021/05/27 10:20:48;;;;;;;2.03;1.90;;;13.90;99.90;;;;;;5082297;28;20198;-47
2021/05/27 10:23:14;;;;;;;2.20;2.10;;;13.80;99.90;;;;;;5081309;28;20511;-47
2021/05/27 10:25:42;;;;;;;2.90;2.30;;;13.70;99.90;;;;;;5077867;28;20213;-48
2021/05/27 10:28:10;;;;;;;2.20;2.00;;;13.60;99.90;;;;;;5063764;28;20249;-50
2021/05/27 10:30:38;;;;;;;2.03;1.83;;;13.60;99.90;;;;;;5080334;28;20210;-48
2021/05/27 10:33:07;;;;;;;3.90;1.93;;;13.50;99.90;;;;;;5080189;28;20186;-49
2021/05/27 10:36:01;;;;;;;2.23;1.97;;;13.50;99.90;;;;;;5082424;28;20679;-46
2021/05/27 10:38:50;;;;;;;2.03;1.90;;;13.60;99.90;;;;;;5042668;28;20222;-48
2021/05/27 10:41:22;;;;;;;2.97;2.30;;;13.60;99.90;;;;;;5076367;28;20217;-52
2021/05/27 10:44:12;;;;;;;2.77;2.43;;;13.60;99.90;;;;;;5073647;28;20560;-49
2021/05/27 10:47:16;;;;;;;2.57;2.27;;;13.60;99.90;;;;;;5063994;28;20218;-49
2021/05/27 10:49:53;;;;;;;3.43;2.50;;;13.60;99.90;;;;;;5083593;28;20205;-50
2021/05/27 10:52:41;;;;;;;1.63;1.53;;;13.60;99.90;;;;;;5086075;28;20216;-49
2021/05/27 10:55:49;;;;;;;2.30;2.10;;;13.60;99.90;;;;;;5077985;28;20804;-50
2021/05/27 10:58:15;;;;;;;2.40;2.30;;;13.60;99.90;;;;;;5045432;28;20233;-47
2021/05/27 11:00:51;;;;;;;2.67;1.83;;;13.70;99.90;;;;;;5083217;28;20723;-49
2021/05/27 11:03:49;;;;;;;3.30;2.03;;;13.70;99.90;;;;;;5078018;28;20255;-48
2021/05/27 11:06:23;;;;;;;1.87;1.77;;;13.70;99.90;;;;;;5082978;28;20289;-49
2021/05/27 11:09:27;;;;;;;3.17;1.80;;;13.90;99.90;;;;;;5073389;28;20194;-47
2021/05/27 11:11:56;;;;;;;2.97;2.13;;;14.20;99.90;;;;;;5081033;28;20198;-48
2021/05/27 11:14:24;;;;;;;1.57;1.47;;;14.30;99.90;;;;;;5073366;28;20213;-48
2021/05/27 11:17:20;;;;;;;1.50;1.37;;;14.30;99.90;;;;;;5082570;28;20217;-47
2021/05/27 11:19:53;;;;;;;3.17;1.20;;;14.20;99.90;;;;;;5081709;28;20194;-50
2021/05/27 11:22:42;;;;;;;1.10;1.00;;;13.90;99.90;;;;;;5079463;28;20269;-48
2021/05/27 11:25:24;;;;;;;2.53;1.07;;;13.50;99.90;;;;;;5082446;28;21590;-49
2021/05/27 11:27:55;;;;;;;1.17;1.10;;;13.10;99.90;;;;;;5083355;28;20236;-47
2021/05/27 11:30:23;;;;;;;1.43;1.20;;;12.80;99.90;;;;;;5068079;28;20202;-47
2021/05/27 11:32:51;;;;;;;2.20;1.60;;;12.60;99.90;;;;;;5075452;28;20209;-49
2021/05/27 11:35:19;;;;;;;3.43;1.40;;;12.50;99.90;;;;;;5084467;28;20210;-46
2021/05/27 11:37:46;;;;;;;3.77;2.13;;;12.50;99.90;;;;;;5063220;28;20235;-49
2021/05/27 11:40:15;;;;;;;3.17;2.23;;;12.50;99.90;;;;;;5080078;28;20198;-47
2021/05/27 11:42:48;;;;;;;3.03;1.93;;;12.50;99.90;;;;;;5077760;28;20884;-50
2021/05/27 11:45:15;;;;;;;2.30;2.10;;;12.50;99.90;;;;;;5065193;28;20214;-47
2021/05/27 11:47:41;;;;;;;2.20;2.00;;;12.50;99.90;;;;;;5078597;28;20216;-47
2021/05/27 11:50:10;;;;;;;3.70;2.03;;;12.50;99.90;;;;;;5084022;28;20209;-51
2021/05/27 11:52:37;;;;;;;3.00;2.17;;;12.50;99.90;;;;;;5071667;28;21026;-52
2021/05/27 11:55:04;;;;;;;2.57;1.70;;;12.60;99.90;;;;;;5066042;28;21034;-50
2021/05/27 11:57:41;;;;;;;3.53;2.00;;;12.60;99.90;;;;;;5077234;28;20214;-49
2021/05/27 12:00:08;;;;;;;2.30;1.93;;;12.80;99.90;;;;;;5079758;28;20201;-52
2021/05/27 12:02:44;;;;;;;2.77;2.00;;;12.90;99.90;;;;;;5067597;28;20221;-52
2021/05/27 12:05:22;;;;;;;2.60;2.40;;;13.10;99.90;;;;;;5082685;28;20193;-52
2021/05/27 12:07:59;;;;;;;3.07;2.23;;;13.20;99.90;;;;;;5084247;28;20568;-53
2021/05/27 12:10:26;;;;;;;2.00;1.90;;;13.30;99.90;;;;;;5080850;28;20186;-50
2021/05/27 12:12:53;;;;;;;1.93;1.73;;;13.40;99.90;;;;;;5083236;28;20216;-52
2021/05/27 12:15:21;;;;;;;4.43;1.77;;;13.50;99.90;;;;;;5064745;28;20209;-49
2021/05/27 12:17:50;;;;;;;2.67;1.17;;;13.60;99.90;;;;;;5060508;28;20267;-52
2021/05/27 12:20:19;;;;;;;1.57;0.90;;;13.50;99.90;;;;;;5073427;28;20294;-47
2021/05/27 12:22:47;;;;;;;0.70;0.60;;;13.40;99.90;;;;;;5075281;28;20896;-48
2021/05/27 12:25:14;;;;;;;0.70;0.50;;;13.30;99.90;;;;;;5081265;28;20268;-50
2021/05/27 12:27:42;;;;;;;0.77;0.70;;;13.10;99.90;;;;;;5075090;28;20220;-49
2021/05/27 12:30:10;;;;;;;0.87;0.70;;;13.10;99.90;;;;;;5076972;28;20343;-46
2021/05/27 12:32:38;;;;;;;3.27;0.83;;;13.00;99.90;;;;;;5063738;28;20213;-51
2021/05/27 12:35:07;;;;;;;1.30;1.03;;;13.00;99.90;;;;;;5076804;28;20209;-53
2021/05/27 12:37:38;;;;;;;1.50;0.93;;;13.00;99.90;;;;;;5078282;28;20238;-48
2021/05/27 12:40:07;;;;;;;1.13;1.00;;;13.00;99.90;;;;;;5084072;28;20194;-47
2021/05/27 12:42:37;;;;;;;0.97;0.97;;;13.10;99.90;;;;;;5080160;28;20273;-52
2021/05/27 12:45:26;;;;;;;1.03;1.00;;;13.10;99.90;;;;;;5075258;28;20221;-49
2021/05/27 12:48:10;;;;;;;3.03;1.57;;;13.20;99.90;;;;;;5062935;28;20222;-52
2021/05/27 12:50:39;;;;;;;2.87;1.50;;;13.50;99.90;;;;;;5073295;28;20229;-52
2021/05/27 12:53:06;;;;;;;1.87;0.93;;;13.70;99.90;;;;;;5083183;28;20243;-49
2021/05/27 12:55:34;;;;;;;1.87;1.07;;;13.70;99.90;;;;;;5078432;28;21062;-54
2021/05/27 12:58:03;;;;;;;1.30;1.20;;;13.70;99.90;;;;;;5082326;28;20239;-50
2021/05/27 13:00:45;;;;;;;5.57;1.10;;;13.80;99.90;;;;;;5075649;28;20194;-48
2021/05/27 13:03:11;;;;;;;0.83;0.83;;;13.80;99.90;;;;;;5080686;28;20193;-49
2021/05/27 13:05:38;;;;;;;1.70;1.10;;;13.70;99.90;;;;;;5068136;28;20877;-50
2021/05/27 13:08:05;;;;;;;0.93;0.93;;;13.70;99.90;;;;;;5078073;28;20211;-53
2021/05/27 13:10:33;;;;;;;1.77;1.10;;;13.60;99.90;;;;;;5078271;28;20190;-47
2021/05/27 13:13:00;;;;;;;1.70;1.03;;;13.60;99.90;;;;;;5078299;28;20198;-50